Central Nebraska Regional Airport
KGRI : now visible

Airfield :











YOU CAN JOIN US ON...

 
LOGIN :

Register | Disclaimer

   EN    FR    IT 

 









Legend :    VFR   Marginal VFR   IFR   Intensive IFR   Very Intensive IFR
Visi :
Ceiling :
>= 8 km
>= 3000ft
5 to 8 km
1000 to 3000 ft
1500m to 5 km
500 to 1000 ft
800 to 1500m
200 to 500 ft
< 800m
< 200 ft
Symbols :   Thunderstorms  Fog  Heavy snow  Heavy precipitations  Wind > 20 kt






- Airport Elevation : 1847 ft
- IATA code : GRI


KGRI - Central Nebraska Regional

CURRENT METAR :
  • 270453Z AUTO 22012KT 10SM OVC110 M02/M07 A3015 RMK AO2 SLP235 T10171067

EXPIRED METARs :
  • 270353Z AUTO 21009KT 10SM BKN110 M02/M07 A3017 RMK AO2 SLP242 T10221072
  • 270253Z AUTO 21008KT 10SM CLR M02/M07 A3019 RMK AO2 SLP251 T10221072 58013
  • 270153Z 24012KT 10SM CLR M02/M08 A3022 RMK AO2 SLP263 T10171078

TAF KGRI
Valid from the 27 at 00:00 until the 28 at 00:00 UTC


262320Z 2700/2724 24011KT P6SM FEW200
FM271500 29008KT P6SM VCSH SCT015 BKN050
FM271800 31015KT P6SM OVC025
FM272000 33017G25KT P6SM SCT025 BKN040
FM272300 33015KT P6SM BKN050



MET'MAP, your aeronautical weather chart ! - Copyright ORBIFLY December 2007 - Disclaimer

ORBIFLY MET'MAP TEAM :

Programming & Development : Alexandra Zaïnal
Concept & original design : Baudouin d'Aumeries
Assistance for programming : Marc-Olivier Méhu
Technical & hardware support : Manuel Goepfert

Contact : metmap@orbifly.com




SOURCES & CREDITS :

   NOAA       Earth
Advisory